Airfield :
LOGIN :

Register | Disclaimer

   EN    FR    IT 

 










Legend :    VFR   Marginal VFR   IFR   Intensive IFR   Very Intensive IFR
Visi :
Ceiling :
>= 8 km
>= 3000ft
5 to 8 km
1000 to 3000 ft
1500m to 5 km
500 to 1000 ft
800 to 1500m
200 to 500 ft
< 800m
< 200 ft
Symbols :   Thunderstorms  Fog  Heavy snow  Heavy precipitations  Wind > 20 kt
SIGMETs :     Misc.  Thunderstorms  Icing  Turbulence  Mountain Waves  Volcanic Ashes






- Airport Elevation : 3 ft
- IATA code : DHR


EHKD - Den Helder De Kooy

CURRENT METAR :
  • 040804Z AUTO 33007KT 290V020 9999 FEW016 SCT028 OVC031 14/09 Q0998 BLU 35012KT 9999 FEW015 BKN040 TEMPO SCT015 BKN020

EXPIRED METARs :
  • 040738Z AUTO 33008KT 290V030 9999 BKN015 BKN022 BKN030 14/09 Q0998 WHT 35012KT 9999 FEW014 BKN040 TEMPO SCT015 BKN040
  • 040734Z AUTO 34008KT 290V030 9999 SCT016 BKN035 OVC040 14/10 Q0998 WHT 35012KT 9999 FEW014 BKN040 TEMPO SCT015 BKN040
  • 040725Z AUTO 34008KT 290V030 9999 BKN027 OVC031 14/10 Q0998 BLU 35012KT 9999 FEW014 BKN040 TEMPO SCT015 BKN040
  • 040715Z AUTO 34006KT 280V030 9999 FEW015 BKN026 BKN032 14/10 Q0998 BLU 35012KT 9999 FEW014 BKN040 TEMPO SCT015 BKN040
  • 040703Z AUTO 35008KT 300V040 9999 SCT014 SCT017 BKN026 14/10 Q0998 GRN 35012KT 9999 FEW014 BKN040 TEMPO SCT015 BKN040
  • 040659Z AUTO 34008KT 290V040 9999 FEW014 SCT017 BKN026 14/10 Q0998 WHT 35012KT 9999 FEW014 BKN040 TEMPO SCT015 BKN040
  • 040625Z AUTO 35008KT 300V030 9999 -DZ FEW015CB OVC077 13/10 Q0998 BLU 35012KT 9999 FEW014 BKN040 TEMPO SCT015 BKN040
  • 040555Z AUTO 34008KT 290V030 9999 -DZ FEW028 OVC076 13/09 Q0998 BLU 35012KT 9999 FEW014 BKN040 TEMPO SCT015 BKN040
  • 040533Z AUTO 34008KT 300V040 9999 FEW015 OVC048 13/10 Q0998 BLU 35012KT 9999 FEW014 BKN040 TEMPO SCT015 BKN040
  • 040525Z AUTO 35009KT 310V030 9999 FEW014 SCT018 BKN066 13/10 Q0998 WHT 35012KT 9999 FEW014 BKN040 TEMPO SCT015 BKN040
  • 040511Z AUTO 35009KT 310V030 9999 SCT015 OVC066 13/10 Q0998 WHT 35012KT 9999 FEW014 BKN040 TEMPO SCT015 BKN040

TAF TAF EHKD
Valid from the 04 at 05:00 until the 04 at 17:00 UTC


040437Z 0405/0417 35010KT 9999 SCT015 BKN040
TEMPO 0405/0409 SCT008 BKN012
BECMG 0406/0409 34012G22KT BKN020
PROB30
TEMPO 0409/0417 FEW012 SCT015 BKN030



MET'MAP, your aeronautical weather chart ! - Copyright ORBIFLY December 2007 - Disclaimer

ORBIFLY MET'MAP TEAM :

Programming & Development : Alexandra Zaïnal
Concept & original design : Baudouin d'Aumeries
Assistance for programming : Marc-Olivier Méhu
Technical & hardware support : Manuel Goepfert

Contact : metmap@orbifly.com




SOURCES & CREDITS :

   NOAA